Trafalgar, IN (46181)

5:06 AM EDT on April 19, 2015 (GMT -0400)
Union Township - Johnson Co. | | Change Station
CLOSE
Current Station
Personal Weather Station
Location: Franklin, IN
Elevation: 827 ft
Nearby Weather Stations

Elev 827 ft 39.46 °N, 86.17 °W | Updated 4 seconds ago

Overcast
Overcast
60.4 °F
Feels Like 60.4 °F
N
6.0
Wind Variable Wind from ENE
Gusts 8.0 mph

Today
High -- | Low -- °F
--% Chance of Precip.
Yesterday
High -- | Low -- °F
Precip. -- in
7:02 AM 8:26 PM
New Moon, 1% visible
Pressure 29.85 in
Visibility 10.0 miles
Clouds Clear
Dew Point 52 °F
Humidity 73%
Rainfall 0.00 in
Snow Depth Not available.
UV 0 out of 12
Pollen 11.40 out of 12
Air Quality Not available.
Flu Activity Local Activity
METAR K1II 190855Z AUTO 08005KT 10SM CLR 15/08 A2985 RMK AO2

More Conditions Fewer Conditions

Pressure 29.85 in
Visibility 10.0 miles
Clouds Clear
Dew Point 52 °F
Humidity 73%
Rainfall 0.00 in
Snow Depth Not available.
UV 0 out of 12
Pollen 11.40 out of 12
Air Quality Not available.
Flu Activity Local Activity
METAR K1II 190855Z AUTO 08005KT 10SM CLR 15/08 A2985 RMK AO2

More Conditions Fewer Conditions

10-Day Weather Forecast

Almanac

Astronomy

Apr. 19, 2015 Rise Set
Actual Time
Civil Twilight
Nautical Twilight
Astronomical Twilight
Moon
Length of Visible Light
Length of Day
Tomorrow will be .
, % of the Moon is Illuminated

Today's Extremes

State Highs State Lows

Community

WunderPhotos

Upload Photos

1,814,723 photos uploaded!

WunderBlogs® & News

Nearby

Air Quality

  Air Quality AQ Index Pollutant
Not available.

Snow Depth

Station Depth Elevation

Earthquake Activity

City Distance Mag. Time & Date
Minimum magnitude displayed is 2.5.

Coastal Water Temperatures

Place Temperature

Stations

Nearby Weather Stations

Station Location Temp. Windchill Dew Point Humidity Wind Precip. Elev Updated Type